Amberson, PA

11:59 PM EDT on September 02, 2014 (GMT -0400)
Upper Mifflin Township | Change Station
CLOSE
Current Station
Personal Weather Station
Location: Newville, PA
Elevation: 659 ft
Nearby Weather Stations

Elev 659 ft 40.21 °N, 77.49 °W | Updated 12 seconds ago

Partly Cloudy
Partly Cloudy
70.0 °F
Feels Like 70.0 °F
N
1.6
Wind Variable Wind from West
Gusts 1.6 mph

Today
High -- | Low -- °F
--% Chance of Precip.
Yesterday
High -- | Low -- °F
Precip. -- in
6:39 AM 7:40 PM
First Quarter, 58% visible
Pressure 29.95 in
Visibility 10.0 miles
Clouds Few 12000 ft
Dew Point 70 °F
Humidity 99%
Rainfall 0.18 in
Snow Depth Not available.
UV 0.0 out of 12
Pollen 8.80 out of 12
Air Quality Not available.
Flu Activity Not available.
METAR KHGR 030353Z AUTO 12003KT 10SM FEW120 23/20 A2994 RMK AO2 SLP142 T02280200

More Conditions Fewer Conditions

Pressure 29.95 in
Visibility 10.0 miles
Clouds Few 12000 ft
Dew Point 70 °F
Humidity 99%
Rainfall 0.18 in
Snow Depth Not available.
UV 0.0 out of 12
Pollen 8.80 out of 12
Air Quality Not available.
Flu Activity Not available.
METAR KHGR 030353Z AUTO 12003KT 10SM FEW120 23/20 A2994 RMK AO2 SLP142 T02280200

More Conditions Fewer Conditions

10-Day Weather Forecast

Almanac

Astronomy

Sep. 02, 2014 Rise Set
Actual Time 6:39 AM EDT 7:40 PM EDT
Civil Twilight 6:11 AM EDT 8:08 PM EDT
Nautical Twilight 5:38 AM EDT 8:41 PM EDT
Astronomical Twilight 5:03 AM EDT 9:15 PM EDT
Moon 2:21 PM EDT (9/2) No Moon Set
Length of Visible Light 13h 57m
Length of Day
13h 01m
Tomorrow will be 2m 33s shorter.
First Quarter, 58% of the Moon is Illuminated
Today
First Quarter
Sep 8
Full
Sep 15
Last Quarter
Sep 24
New
Oct 1
First Quarter

Today's Extremes

State Highs State Lows

Community

WunderPhotos

Upload Photos

1,749,867 photos uploaded!

Nearby

Snow Depth

Station Depth Elevation
No new snow has been reported.

Earthquake Activity

City Distance Mag. Time & Date
No recent earthquake activity has been reported nearby.
Minimum magnitude displayed is 2.5.

Coastal Water Temperatures

Place Temperature
No Stations Reporting

Nearby Weather Stations